Time;durP1;ratioP1;P1;durP2;ratioP2;P2;SDS_P1;SDS_P2;PMS_P1;PMS_P2;Temp;Humidity;BMP_temperature;BMP_pressure;BME280_temperature;BME280_humidity;BME280_pressure;Samples;Min_cycle;Max_cycle;Signal;HPM_P1;HPM_P2
2021/10/07 00:00:07;;;;;;;5.20;4.80;;;;;;;;;;5121354;27;24428;-59
2021/10/07 00:02:32;;;;;;;5.60;5.10;;;;;;;;;;5124076;27;24417;-60
2021/10/07 00:04:57;;;;;;;6.10;5.50;;;;;;;;;;5118123;27;24421;-59
2021/10/07 00:07:22;;;;;;;6.10;5.60;;;;;;;;;;5122696;27;24956;-59
2021/10/07 00:09:48;;;;;;;5.38;4.90;;;;;;;;;;5117601;27;24401;-59
2021/10/07 00:12:13;;;;;;;5.47;5.07;;;;;;;;;;5124396;27;24425;-60
2021/10/07 00:14:38;;;;;;;5.43;5.03;;;;;;;;;;5123449;27;24781;-59
2021/10/07 00:17:03;;;;;;;5.50;5.00;;;;;;;;;;5119928;27;24988;-60
2021/10/07 00:19:28;;;;;;;5.50;5.10;;;;;;;;;;5119238;27;24425;-59
2021/10/07 00:21:54;;;;;;;5.57;5.07;;;;;;;;;;5115213;27;24905;-58
2021/10/07 00:24:19;;;;;;;5.95;5.22;;;;;;;;;;5119435;27;24984;-59
2021/10/07 00:26:45;;;;;;;5.80;5.30;;;;;;;;;;5121876;27;24933;-59
2021/10/07 00:31:39;;;;;;;5.80;5.40;;;;;;;;;;5123516;28;24428;-59
2021/10/07 00:34:13;;;;;;;5.20;4.75;;;;;;;;;;5117468;28;24915;-59
2021/10/07 00:39:04;;;;;;;5.55;5.05;;;;;;;;;;5120983;27;24976;-59
2021/10/07 00:41:33;;;;;;;5.18;4.68;;;;;;;;;;5128117;27;25020;-59
2021/10/07 00:44:02;;;;;;;5.13;4.72;;;;;;;;;;5125325;27;24429;-59
2021/10/07 00:46:28;;;;;;;5.70;5.20;;;;;;;;;;5124081;27;24428;-59
2021/10/07 00:48:53;;;;;;;4.93;4.53;;;;;;;;;;5121621;27;24713;-59
2021/10/07 00:51:18;;;;;;;5.38;4.90;;;;;;;;;;5125286;27;24801;-61
2021/10/07 00:53:43;;;;;;;5.60;5.10;;;;;;;;;;5123672;27;24461;-59
2021/10/07 00:56:08;;;;;;;5.30;4.90;;;;;;;;;;5125978;27;24500;-59
2021/10/07 00:58:34;;;;;;;5.90;5.40;;;;;;;;;;5127958;27;24440;-59
2021/10/07 01:00:59;;;;;;;5.73;5.33;;;;;;;;;;5122341;27;24872;-59
2021/10/07 01:03:24;;;;;;;5.70;5.30;;;;;;;;;;5122017;27;24416;-59
2021/10/07 01:05:50;;;;;;;5.68;5.28;;;;;;;;;;5123128;27;24463;-59
2021/10/07 01:08:15;;;;;;;5.83;5.43;;;;;;;;;;5125442;27;24507;-59
2021/10/07 01:10:40;;;;;;;6.00;5.50;;;;;;;;;;5126782;27;24413;-59
2021/10/07 01:13:06;;;;;;;5.75;5.35;;;;;;;;;;5117051;27;24469;-59
2021/10/07 01:15:31;;;;;;;5.00;4.60;;;;;;;;;;5114193;27;24460;-60
2021/10/07 01:17:56;;;;;;;5.10;4.60;;;;;;;;;;5121942;27;24552;-59
2021/10/07 01:20:21;;;;;;;4.90;4.50;;;;;;;;;;5123634;27;24420;-59
2021/10/07 01:22:47;;;;;;;5.00;4.60;;;;;;;;;;5117332;27;24516;-58
2021/10/07 01:25:12;;;;;;;4.75;4.45;;;;;;;;;;5119330;27;24964;-59
2021/10/07 01:27:37;;;;;;;4.80;4.50;;;;;;;;;;5127555;27;24401;-59
2021/10/07 01:30:07;;;;;;;5.03;4.57;;;;;;;;;;5113260;27;24504;-59
2021/10/07 01:32:33;;;;;;;4.55;4.15;;;;;;;;;;5121987;27;24777;-59
2021/10/07 01:34:58;;;;;;;4.03;3.72;;;;;;;;;;5125235;27;24433;-59
2021/10/07 01:37:24;;;;;;;4.47;4.17;;;;;;;;;;5126344;27;24990;-59
2021/10/07 01:39:49;;;;;;;4.50;4.20;;;;;;;;;;5115209;27;24462;-59
2021/10/07 01:42:14;;;;;;;4.90;4.60;;;;;;;;;;5123267;27;24505;-59
2021/10/07 01:44:39;;;;;;;4.82;4.53;;;;;;;;;;5123425;27;24432;-60
2021/10/07 01:47:04;;;;;;;4.50;4.20;;;;;;;;;;5122835;27;24436;-59
2021/10/07 01:49:29;;;;;;;4.40;4.10;;;;;;;;;;5121779;27;24990;-61
2021/10/07 01:51:55;;;;;;;4.30;4.00;;;;;;;;;;5124999;27;24516;-59
2021/10/07 01:54:20;;;;;;;4.70;4.40;;;;;;;;;;5126512;27;24999;-59
2021/10/07 01:56:45;;;;;;;4.35;4.05;;;;;;;;;;5122640;27;24517;-59
2021/10/07 01:59:10;;;;;;;4.90;4.50;;;;;;;;;;5120831;27;24460;-59
2021/10/07 02:01:36;;;;;;;4.30;4.00;;;;;;;;;;5122375;27;24440;-59
2021/10/07 02:04:01;;;;;;;4.70;4.40;;;;;;;;;;5124771;27;24493;-59
2021/10/07 02:06:27;;;;;;;4.70;4.40;;;;;;;;;;5126818;27;24440;-59
2021/10/07 02:08:53;;;;;;;4.30;4.00;;;;;;;;;;5124329;27;24530;-59
2021/10/07 02:11:18;;;;;;;4.32;4.03;;;;;;;;;;5124420;27;24444;-59
2021/10/07 02:13:43;;;;;;;4.40;4.10;;;;;;;;;;5122947;27;24497;-59
2021/10/07 02:16:08;;;;;;;4.15;3.85;;;;;;;;;;5120152;27;24435;-60
2021/10/07 02:18:33;;;;;;;4.40;4.10;;;;;;;;;;5123733;27;24473;-59
2021/10/07 02:20:58;;;;;;;4.30;4.00;;;;;;;;;;5124136;27;25061;-59
2021/10/07 02:23:24;;;;;;;4.50;4.20;;;;;;;;;;5126294;27;24512;-59
2021/10/07 02:25:49;;;;;;;4.50;4.20;;;;;;;;;;5122059;27;24500;-58
2021/10/07 02:28:14;;;;;;;4.10;3.90;;;;;;;;;;5120179;27;24420;-60
2021/10/07 02:30:40;;;;;;;4.30;4.00;;;;;;;;;;5121431;27;25042;-59
2021/10/07 02:33:05;;;;;;;3.90;3.70;;;;;;;;;;5124821;27;24568;-59
2021/10/07 02:35:30;;;;;;;3.80;3.60;;;;;;;;;;5125472;27;24452;-59
2021/10/07 02:37:55;;;;;;;4.97;4.67;;;;;;;;;;5122013;27;24412;-59
2021/10/07 02:40:20;;;;;;;4.55;4.25;;;;;;;;;;5117281;27;24413;-59
2021/10/07 02:42:46;;;;;;;4.30;4.00;;;;;;;;;;5119827;27;24420;-59
2021/10/07 02:45:12;;;;;;;5.20;4.90;;;;;;;;;;5125800;27;24417;-60
2021/10/07 02:47:38;;;;;;;4.70;4.40;;;;;;;;;;5123845;27;24504;-59
2021/10/07 02:50:05;;;;;;;4.80;4.50;;;;;;;;;;5123728;27;24554;-59
2021/10/07 02:52:30;;;;;;;4.60;4.30;;;;;;;;;;5125238;27;24420;-59
2021/10/07 02:54:55;;;;;;;4.60;4.20;;;;;;;;;;5122919;27;24421;-59
2021/10/07 02:57:20;;;;;;;4.03;3.72;;;;;;;;;;5119814;27;24781;-59
2021/10/07 02:59:45;;;;;;;4.60;4.30;;;;;;;;;;5121199;27;24444;-59
2021/10/07 03:02:10;;;;;;;4.47;4.17;;;;;;;;;;5123427;27;24530;-59
2021/10/07 03:04:35;;;;;;;4.40;4.10;;;;;;;;;;5124677;27;24405;-59
2021/10/07 03:07:01;;;;;;;5.47;5.07;;;;;;;;;;5123418;27;24421;-59
2021/10/07 03:09:26;;;;;;;5.07;4.77;;;;;;;;;;5121644;27;24760;-59
2021/10/07 03:11:51;;;;;;;5.07;4.67;;;;;;;;;;5121312;27;25092;-59
2021/10/07 03:14:16;;;;;;;4.60;4.30;;;;;;;;;;5124630;27;24424;-59
2021/10/07 03:16:41;;;;;;;4.65;4.35;;;;;;;;;;5123264;27;24385;-59
2021/10/07 03:19:07;;;;;;;3.83;3.63;;;;;;;;;;5124708;27;24452;-59
2021/10/07 03:21:32;;;;;;;4.03;3.73;;;;;;;;;;5120955;27;24493;-59
2021/10/07 03:23:57;;;;;;;4.30;4.00;;;;;;;;;;5119106;27;24458;-59
2021/10/07 03:26:22;;;;;;;4.80;4.50;;;;;;;;;;5122336;27;24851;-59
2021/10/07 03:28:47;;;;;;;4.10;3.80;;;;;;;;;;5123009;27;24965;-58
2021/10/07 03:31:12;;;;;;;4.40;4.10;;;;;;;;;;5123518;27;24409;-59
2021/10/07 03:33:38;;;;;;;3.58;3.38;;;;;;;;;;5124806;27;24421;-59
2021/10/07 03:36:03;;;;;;;4.00;3.70;;;;;;;;;;5118313;27;24945;-59
2021/10/07 03:38:29;;;;;;;3.60;3.40;;;;;;;;;;5119175;27;24440;-59
2021/10/07 03:40:55;;;;;;;3.80;3.50;;;;;;;;;;5118440;27;24539;-59
2021/10/07 03:43:20;;;;;;;4.30;4.00;;;;;;;;;;5120415;27;24508;-59
2021/10/07 03:45:45;;;;;;;4.30;4.00;;;;;;;;;;5122489;27;24951;-59
2021/10/07 03:48:10;;;;;;;3.70;3.50;;;;;;;;;;5124724;27;24967;-59
2021/10/07 03:50:35;;;;;;;4.20;3.90;;;;;;;;;;5123572;27;24413;-60
2021/10/07 03:53:01;;;;;;;4.03;3.72;;;;;;;;;;5120830;27;25005;-59
2021/10/07 03:55:26;;;;;;;4.93;4.53;;;;;;;;;;5118262;27;24401;-60
2021/10/07 03:57:51;;;;;;;4.78;4.30;;;;;;;;;;5121231;27;24594;-60
2021/10/07 04:00:17;;;;;;;4.50;4.10;;;;;;;;;;5123866;27;24848;-60
2021/10/07 04:02:42;;;;;;;4.57;4.27;;;;;;;;;;5123313;27;24450;-60
2021/10/07 04:05:07;;;;;;;4.60;4.20;;;;;;;;;;5123910;27;24441;-59
2021/10/07 04:07:32;;;;;;;4.30;4.00;;;;;;;;;;5118918;27;24920;-60
2021/10/07 04:09:57;;;;;;;4.00;3.73;;;;;;;;;;5122505;27;24493;-59
2021/10/07 04:12:23;;;;;;;4.30;3.90;;;;;;;;;;5123857;27;24420;-59
2021/10/07 04:14:49;;;;;;;4.63;4.32;;;;;;;;;;5126645;27;24417;-59
2021/10/07 04:17:15;;;;;;;4.70;4.30;;;;;;;;;;5127092;27;24470;-60
2021/10/07 04:19:40;;;;;;;4.20;3.90;;;;;;;;;;5127502;27;24467;-59
2021/10/07 04:22:05;;;;;;;5.20;4.80;;;;;;;;;;5126337;27;25051;-59
2021/10/07 04:24:30;;;;;;;5.63;5.22;;;;;;;;;;5126617;27;24968;-59
2021/10/07 04:26:55;;;;;;;4.60;4.30;;;;;;;;;;5126171;27;24642;-59
2021/10/07 04:29:20;;;;;;;4.65;4.35;;;;;;;;;;5125890;27;24416;-59
2021/10/07 04:31:46;;;;;;;4.80;4.40;;;;;;;;;;5127325;27;24444;-60
2021/10/07 04:34:11;;;;;;;4.77;4.47;;;;;;;;;;5126232;27;24437;-60
2021/10/07 04:36:36;;;;;;;4.50;4.20;;;;;;;;;;5125681;28;24429;-59
2021/10/07 04:39:01;;;;;;;4.88;4.57;;;;;;;;;;5123758;28;24425;-60
2021/10/07 04:41:26;;;;;;;4.80;4.40;;;;;;;;;;5123618;28;24808;-59
2021/10/07 04:43:52;;;;;;;5.70;5.30;;;;;;;;;;5122084;28;24458;-59
2021/10/07 04:46:21;;;;;;;5.20;4.80;;;;;;;;;;5124346;28;24504;-59
2021/10/07 04:48:46;;;;;;;5.25;4.95;;;;;;;;;;5123893;28;24419;-59
2021/10/07 04:51:11;;;;;;;5.30;4.90;;;;;;;;;;5121957;28;24525;-59
2021/10/07 04:53:36;;;;;;;6.38;5.78;;;;;;;;;;5112918;28;24466;-59
2021/10/07 04:56:02;;;;;;;5.10;4.70;;;;;;;;;;5124312;28;24389;-59
2021/10/07 04:58:27;;;;;;;6.07;5.57;;;;;;;;;;5123569;28;24523;-59
2021/10/07 05:00:54;;;;;;;6.13;5.63;;;;;;;;;;5123640;28;24635;-59
2021/10/07 05:03:19;;;;;;;7.20;6.60;;;;;;;;;;5113834;28;25342;-59
2021/10/07 05:05:44;;;;;;;5.95;5.55;;;;;;;;;;5124964;28;24994;-59
2021/10/07 05:08:09;;;;;;;5.70;5.30;;;;;;;;;;5124271;28;24442;-60
2021/10/07 05:10:34;;;;;;;5.83;5.43;;;;;;;;;;5118609;28;24523;-59
2021/10/07 05:13:00;;;;;;;5.83;5.40;;;;;;;;;;5123374;28;24503;-59
2021/10/07 05:15:25;;;;;;;5.20;4.80;;;;;;;;;;5124273;28;24421;-59
2021/10/07 05:17:50;;;;;;;4.50;4.20;;;;;;;;;;5125054;28;24781;-59
2021/10/07 05:20:15;;;;;;;4.65;4.35;;;;;;;;;;5123124;28;24421;-59
2021/10/07 05:22:41;;;;;;;5.53;5.23;;;;;;;;;;5124479;27;24508;-58
2021/10/07 05:25:06;;;;;;;5.22;4.82;;;;;;;;;;5120085;27;24760;-59
2021/10/07 05:27:31;;;;;;;5.90;5.40;;;;;;;;;;5117397;27;24857;-59
2021/10/07 05:29:56;;;;;;;5.10;4.80;;;;;;;;;;5125240;27;24400;-59
2021/10/07 05:32:21;;;;;;;5.13;4.82;;;;;;;;;;5127292;27;24401;-59
2021/10/07 05:34:46;;;;;;;5.22;4.93;;;;;;;;;;5125363;27;24421;-59
2021/10/07 05:37:12;;;;;;;5.03;4.72;;;;;;;;;;5122969;27;24457;-59
2021/10/07 05:39:37;;;;;;;5.23;4.83;;;;;;;;;;5123382;27;24974;-59
2021/10/07 05:42:02;;;;;;;4.90;4.60;;;;;;;;;;5124661;27;24443;-59
2021/10/07 05:44:27;;;;;;;4.53;4.30;;;;;;;;;;5127008;27;24403;-59
2021/10/07 05:46:52;;;;;;;4.43;4.13;;;;;;;;;;5124933;27;24801;-59
2021/10/07 05:49:19;;;;;;;4.13;3.92;;;;;;;;;;5125408;27;24416;-59
2021/10/07 05:51:44;;;;;;;4.90;4.60;;;;;;;;;;5125250;27;24417;-59
2021/10/07 05:54:09;;;;;;;5.40;5.00;;;;;;;;;;5126688;27;24494;-59
2021/10/07 05:56:34;;;;;;;4.40;4.10;;;;;;;;;;5126547;27;25020;-58
2021/10/07 05:58:59;;;;;;;4.45;4.15;;;;;;;;;;5126785;27;24393;-58
2021/10/07 06:01:25;;;;;;;5.10;4.70;;;;;;;;;;5126858;27;24540;-58
2021/10/07 06:03:50;;;;;;;4.45;4.15;;;;;;;;;;5126005;27;24822;-59
2021/10/07 06:06:15;;;;;;;4.60;4.30;;;;;;;;;;5127369;27;24532;-59
2021/10/07 06:08:40;;;;;;;4.50;4.28;;;;;;;;;;5127276;27;24749;-59
2021/10/07 06:11:05;;;;;;;4.40;4.10;;;;;;;;;;5125924;27;24424;-58
2021/10/07 06:13:30;;;;;;;5.03;4.70;;;;;;;;;;5114380;27;25017;-59
2021/10/07 06:15:56;;;;;;;5.04;4.74;;;;;;;;;;5126802;27;24443;-59
2021/10/07 06:18:21;;;;;;;6.07;5.67;;;;;;;;;;5124772;27;24499;-58
2021/10/07 06:20:46;;;;;;;5.77;5.47;;;;;;;;;;5122317;27;24474;-59
2021/10/07 06:23:12;;;;;;;6.50;6.00;;;;;;;;;;5121430;27;24512;-59
2021/10/07 06:25:37;;;;;;;7.53;7.03;;;;;;;;;;5120043;27;24500;-59
2021/10/07 06:28:03;;;;;;;7.73;7.13;;;;;;;;;;5124045;27;24393;-59
2021/10/07 06:30:28;;;;;;;7.10;6.60;;;;;;;;;;5126278;27;24438;-59
2021/10/07 06:32:54;;;;;;;6.17;5.77;;;;;;;;;;5124291;27;24449;-59
2021/10/07 06:35:19;;;;;;;6.65;6.15;;;;;;;;;;5119804;27;24513;-61
2021/10/07 06:37:44;;;;;;;6.55;6.05;;;;;;;;;;5120470;27;24389;-59
2021/10/07 06:40:10;;;;;;;7.00;6.50;;;;;;;;;;5123922;27;24790;-59
2021/10/07 06:42:36;;;;;;;6.30;5.70;;;;;;;;;;5125666;27;24524;-59
2021/10/07 06:45:05;;;;;;;5.60;5.20;;;;;;;;;;5123643;27;24497;-59
2021/10/07 06:47:30;;;;;;;5.20;4.90;;;;;;;;;;5124252;27;25177;-59
2021/10/07 06:49:55;;;;;;;5.28;4.88;;;;;;;;;;5119984;27;24449;-59
2021/10/07 06:52:20;;;;;;;5.30;4.90;;;;;;;;;;5120139;27;24500;-59
2021/10/07 06:54:46;;;;;;;4.80;4.50;;;;;;;;;;5123181;27;24413;-59
2021/10/07 06:57:11;;;;;;;4.90;4.60;;;;;;;;;;5125286;27;24431;-59
2021/10/07 06:59:36;;;;;;;5.00;4.60;;;;;;;;;;5125681;27;24397;-59
2021/10/07 07:02:01;;;;;;;4.47;4.07;;;;;;;;;;5121318;27;24415;-59
2021/10/07 07:04:26;;;;;;;4.10;3.90;;;;;;;;;;5119546;27;24425;-59
2021/10/07 07:06:54;;;;;;;4.20;3.90;;;;;;;;;;5121789;27;24401;-59
2021/10/07 07:09:19;;;;;;;4.80;4.50;;;;;;;;;;5121595;27;24748;-59
2021/10/07 07:11:44;;;;;;;5.00;4.70;;;;;;;;;;5122951;27;24518;-59
2021/10/07 07:14:09;;;;;;;3.95;3.75;;;;;;;;;;5125029;27;24397;-59
2021/10/07 07:16:34;;;;;;;3.70;3.50;;;;;;;;;;5125352;27;24393;-59
2021/10/07 07:19:00;;;;;;;3.70;3.50;;;;;;;;;;5119022;27;24562;-59
2021/10/07 07:21:29;;;;;;;3.80;3.45;;;;;;;;;;5119324;27;24432;-61
2021/10/07 07:23:55;;;;;;;4.68;4.28;;;;;;;;;;5120943;27;24385;-61
2021/10/07 07:26:20;;;;;;;4.57;4.28;;;;;;;;;;5125072;27;24396;-59
2021/10/07 07:28:45;;;;;;;4.80;4.50;;;;;;;;;;5124419;27;24565;-60
2021/10/07 07:31:10;;;;;;;4.10;3.90;;;;;;;;;;5122531;27;24488;-59
2021/10/07 07:33:36;;;;;;;3.80;3.60;;;;;;;;;;5120305;27;24389;-59
2021/10/07 07:36:01;;;;;;;3.95;3.75;;;;;;;;;;5118954;27;24546;-60
2021/10/07 07:38:26;;;;;;;4.10;3.90;;;;;;;;;;5124322;27;24404;-59
2021/10/07 07:40:51;;;;;;;4.37;4.07;;;;;;;;;;5122524;27;24432;-59
2021/10/07 07:43:20;;;;;;;4.00;3.80;;;;;;;;;;5124473;27;24397;-60
2021/10/07 07:45:49;;;;;;;4.00;3.80;;;;;;;;;;5118638;27;24502;-59
2021/10/07 07:48:14;;;;;;;5.30;4.90;;;;;;;;;;5118318;27;24428;-59
2021/10/07 07:50:40;;;;;;;4.90;4.60;;;;;;;;;;5122543;27;24932;-59
2021/10/07 07:53:05;;;;;;;5.38;4.90;;;;;;;;;;5122479;27;24950;-61
2021/10/07 07:55:30;;;;;;;4.83;4.53;;;;;;;;;;5124559;27;25012;-59
2021/10/07 07:57:56;;;;;;;5.45;5.05;;;;;;;;;;5121319;27;24416;-59
2021/10/07 08:00:21;;;;;;;5.00;4.70;;;;;;;;;;5122821;27;24416;-59
2021/10/07 08:02:46;;;;;;;5.50;5.10;;;;;;;;;;5119065;27;24912;-59
2021/10/07 08:05:11;;;;;;;4.13;3.83;;;;;;;;;;5102154;27;24389;-59
2021/10/07 08:07:37;;;;;;;3.70;3.50;;;;;;;;;;5120349;27;24393;-60
2021/10/07 08:10:02;;;;;;;3.80;3.50;;;;;;;;;;5123564;27;24416;-59
2021/10/07 08:12:33;;;;;;;4.50;4.20;;;;;;;;;;5123733;27;24445;-59
2021/10/07 08:14:59;;;;;;;4.38;4.07;;;;;;;;;;5122091;27;24940;-60
2021/10/07 08:17:24;;;;;;;4.53;4.22;;;;;;;;;;5118772;27;24401;-59
2021/10/07 08:19:49;;;;;;;4.80;4.50;;;;;;;;;;5117941;27;24465;-59
2021/10/07 08:22:15;;;;;;;4.30;4.00;;;;;;;;;;5121777;27;24417;-59
2021/10/07 08:24:41;;;;;;;3.90;3.60;;;;;;;;;;5123767;27;25012;-59
2021/10/07 08:27:06;;;;;;;4.20;3.90;;;;;;;;;;5122683;27;24994;-59
2021/10/07 08:29:31;;;;;;;4.22;3.92;;;;;;;;;;5123822;27;24929;-59
2021/10/07 08:31:56;;;;;;;4.13;3.83;;;;;;;;;;5117177;27;24425;-59
2021/10/07 08:34:21;;;;;;;5.50;5.10;;;;;;;;;;5118246;27;24776;-59
2021/10/07 08:36:46;;;;;;;4.20;3.90;;;;;;;;;;5119999;28;24518;-59
2021/10/07 08:39:15;;;;;;;4.47;4.17;;;;;;;;;;5121505;28;24401;-59
2021/10/07 08:41:41;;;;;;;5.97;5.57;;;;;;;;;;5121112;28;24444;-59
2021/10/07 08:44:06;;;;;;;4.80;4.40;;;;;;;;;;5123564;28;24404;-59
2021/10/07 08:46:32;;;;;;;4.80;4.40;;;;;;;;;;5122229;28;24753;-59
2021/10/07 08:48:59;;;;;;;4.60;4.30;;;;;;;;;;5117507;28;25181;-60
2021/10/07 08:51:24;;;;;;;5.50;5.10;;;;;;;;;;5117753;28;24573;-59
2021/10/07 08:53:49;;;;;;;4.93;4.53;;;;;;;;;;5119172;28;24936;-60
2021/10/07 08:56:14;;;;;;;4.63;4.30;;;;;;;;;;5123447;28;24392;-58
2021/10/07 08:58:40;;;;;;;5.20;4.70;;;;;;;;;;5126349;27;24476;-58
2021/10/07 09:01:05;;;;;;;4.60;4.30;;;;;;;;;;5126203;27;24960;-59
2021/10/07 09:03:31;;;;;;;4.50;4.10;;;;;;;;;;5123863;27;24437;-59
2021/10/07 09:06:08;;;;;;;4.00;3.70;;;;;;;;;;5121490;27;24963;-59
2021/10/07 09:08:41;;;;;;;4.25;3.85;;;;;;;;;;5123404;27;24392;-59
2021/10/07 09:11:06;;;;;;;4.80;4.50;;;;;;;;;;5125505;27;24596;-59
2021/10/07 09:13:31;;;;;;;4.43;3.85;;;;;;;;;;5127276;27;24896;-59
2021/10/07 09:15:57;;;;;;;4.90;4.50;;;;;;;;;;5125044;27;24396;-59
2021/10/07 09:18:23;;;;;;;4.70;4.30;;;;;;;;;;5123587;27;24432;-59
2021/10/07 09:20:49;;;;;;;4.70;4.32;;;;;;;;;;5127041;27;24416;-59
2021/10/07 09:23:17;;;;;;;4.25;3.95;;;;;;;;;;5126514;27;24648;-59
2021/10/07 09:25:52;;;;;;;6.15;4.75;;;;;;;;;;5125610;27;24948;-59
2021/10/07 09:28:17;;;;;;;4.63;4.22;;;;;;;;;;5121296;27;24928;-59
2021/10/07 09:30:42;;;;;;;4.57;4.18;;;;;;;;;;5121886;27;24396;-58
2021/10/07 09:33:07;;;;;;;4.68;4.28;;;;;;;;;;5124634;27;24851;-59
2021/10/07 09:35:36;;;;;;;5.10;4.27;;;;;;;;;;5126707;27;24523;-59
2021/10/07 09:38:04;;;;;;;3.00;2.80;;;;;;;;;;5125055;27;24489;-59
2021/10/07 09:40:29;;;;;;;4.80;4.30;;;;;;;;;;5106649;27;24405;-59
2021/10/07 09:42:58;;;;;;;4.78;4.38;;;;;;;;;;5121006;27;24493;-59
2021/10/07 09:45:24;;;;;;;4.32;3.92;;;;;;;;;;5122509;27;24524;-58
2021/10/07 09:47:53;;;;;;;3.58;3.28;;;;;;;;;;5124917;27;24434;-59
2021/10/07 09:50:21;;;;;;;4.30;3.80;;;;;;;;;;5126562;27;24955;-59
2021/10/07 09:52:48;;;;;;;3.90;3.60;;;;;;;;;;5124458;27;24392;-59
2021/10/07 09:55:15;;;;;;;3.80;3.50;;;;;;;;;;5120262;27;24686;-59
2021/10/07 09:57:48;;;;;;;3.80;3.50;;;;;;;;;;5124285;27;24505;-59
2021/10/07 10:00:13;;;;;;;3.50;3.20;;;;;;;;;;5126419;27;25015;-59
2021/10/07 10:02:38;;;;;;;3.95;3.60;;;;;;;;;;5126056;27;24514;-59
2021/10/07 10:05:04;;;;;;;3.50;3.20;;;;;;;;;;5124886;27;25159;-59
2021/10/07 10:07:29;;;;;;;4.00;3.43;;;;;;;;;;5122756;27;24417;-59
2021/10/07 10:09:54;;;;;;;3.10;2.80;;;;;;;;;;5119592;27;24901;-59
2021/10/07 10:12:20;;;;;;;3.90;3.60;;;;;;;;;;5124116;27;24401;-60
2021/10/07 10:14:47;;;;;;;3.75;3.35;;;;;;;;;;5124637;27;24492;-59
2021/10/07 10:17:12;;;;;;;3.00;2.80;;;;;;;;;;5125665;27;25011;-59
2021/10/07 10:19:38;;;;;;;3.70;3.40;;;;;;;;;;5123017;27;24504;-60
2021/10/07 10:22:03;;;;;;;3.73;3.17;;;;;;;;;;5120599;27;24516;-59
2021/10/07 10:24:28;;;;;;;3.80;3.50;;;;;;;;;;5120836;27;24436;-59
2021/10/07 10:26:58;;;;;;;4.47;4.07;;;;;;;;;;5125793;27;24444;-60
2021/10/07 10:29:23;;;;;;;4.70;4.10;;;;;;;;;;5126034;27;24943;-60
2021/10/07 10:31:52;;;;;;;3.67;3.38;;;;;;;;;;5124146;27;24397;-59
2021/10/07 10:34:19;;;;;;;3.30;2.90;;;;;;;;;;5121734;27;24562;-59
2021/10/07 10:36:45;;;;;;;3.10;2.80;;;;;;;;;;5122307;27;25230;-59
2021/10/07 10:39:19;;;;;;;3.00;2.70;;;;;;;;;;5119439;27;24983;-59
2021/10/07 10:41:55;;;;;;;4.00;3.60;;;;;;;;;;5123973;27;24432;-59
2021/10/07 10:44:26;;;;;;;3.40;3.10;;;;;;;;;;5125443;27;24409;-59
2021/10/07 10:47:06;;;;;;;3.90;3.50;;;;;;;;;;5122054;27;24397;-59
2021/10/07 10:49:34;;;;;;;3.40;3.20;;;;;;;;;;5121026;27;24960;-59
2021/10/07 10:52:02;;;;;;;3.58;3.28;;;;;;;;;;5121985;27;24397;-59
2021/10/07 10:54:30;;;;;;;2.90;2.70;;;;;;;;;;5119854;27;24442;-60
2021/10/07 10:56:57;;;;;;;2.90;2.70;;;;;;;;;;5125167;27;24979;-61
2021/10/07 10:59:24;;;;;;;2.50;2.30;;;;;;;;;;5125421;27;24517;-60
2021/10/07 11:02:07;;;;;;;2.95;2.65;;;;;;;;;;5121709;27;24485;-60
2021/10/07 11:04:49;;;;;;;2.40;2.20;;;;;;;;;;5121631;27;24381;-60
2021/10/07 11:07:15;;;;;;;2.67;2.40;;;;;;;;;;5122000;27;24493;-60
2021/10/07 11:09:56;;;;;;;1.92;1.80;;;;;;;;;;5118799;27;24557;-59
2021/10/07 11:12:21;;;;;;;2.65;2.30;;;;;;;;;;5124834;27;24470;-59
2021/10/07 11:14:47;;;;;;;2.10;1.90;;;;;;;;;;5123131;27;24928;-59
2021/10/07 11:17:13;;;;;;;3.80;2.22;;;;;;;;;;5124581;27;25192;-59
2021/10/07 11:19:38;;;;;;;2.10;2.00;;;;;;;;;;5120038;27;24455;-59
2021/10/07 11:22:10;;;;;;;3.23;2.50;;;;;;;;;;5119154;27;24421;-60
2021/10/07 11:24:46;;;;;;;3.00;2.40;;;;;;;;;;5119649;27;24631;-60
2021/10/07 11:27:11;;;;;;;2.50;2.10;;;;;;;;;;5124498;27;24409;-59
2021/10/07 11:29:36;;;;;;;2.33;2.10;;;;;;;;;;5124226;27;24404;-59
2021/10/07 11:32:01;;;;;;;3.08;2.10;;;;;;;;;;5122679;27;24782;-59
2021/10/07 11:34:26;;;;;;;2.20;2.00;;;;;;;;;;5118560;27;24464;-59
2021/10/07 11:36:52;;;;;;;2.50;2.30;;;;;;;;;;5119054;27;24761;-59
2021/10/07 11:39:17;;;;;;;1.88;1.77;;;;;;;;;;5120057;27;24844;-59
2021/10/07 11:41:42;;;;;;;2.05;1.85;;;;;;;;;;5124326;27;24409;-59
2021/10/07 11:44:07;;;;;;;1.77;1.67;;;;;;;;;;5122479;27;24407;-59
2021/10/07 11:46:36;;;;;;;2.50;2.10;;;;;;;;;;5124135;27;24397;-59
2021/10/07 11:49:01;;;;;;;1.75;1.60;;;;;;;;;;5121803;27;24493;-59
2021/10/07 11:51:28;;;;;;;2.10;2.00;;;;;;;;;;5120308;27;24545;-59
2021/10/07 11:53:54;;;;;;;2.30;2.00;;;;;;;;;;5114377;27;24477;-58
2021/10/07 11:56:23;;;;;;;1.70;1.60;;;;;;;;;;5120141;27;24419;-59
2021/10/07 11:58:51;;;;;;;3.17;2.30;;;;;;;;;;5123604;27;24413;-58
2021/10/07 12:01:17;;;;;;;2.47;2.17;;;;;;;;;;5123814;27;25108;-61
2021/10/07 12:03:42;;;;;;;3.33;2.15;;;;;;;;;;5121751;27;24496;-58
2021/10/07 12:06:09;;;;;;;1.97;1.87;;;;;;;;;;5120164;27;24420;-59
2021/10/07 12:08:35;;;;;;;3.20;2.40;;;;;;;;;;5119729;27;24405;-59
2021/10/07 12:11:02;;;;;;;2.30;2.10;;;;;;;;;;5117858;27;24965;-59
2021/10/07 12:13:32;;;;;;;2.00;1.80;;;;;;;;;;5123558;27;24749;-59
2021/10/07 12:16:00;;;;;;;2.50;2.30;;;;;;;;;;5121636;27;24405;-59
2021/10/07 12:18:26;;;;;;;3.47;1.90;;;;;;;;;;5123679;27;24982;-59
2021/10/07 12:20:55;;;;;;;3.28;2.05;;;;;;;;;;5117355;27;24569;-59
2021/10/07 12:23:20;;;;;;;2.47;2.25;;;;;;;;;;5117773;27;24428;-59
2021/10/07 12:25:45;;;;;;;1.70;1.60;;;;;;;;;;5122192;27;24481;-61
2021/10/07 12:28:15;;;;;;;2.47;2.10;;;;;;;;;;5123597;27;24527;-58
2021/10/07 12:30:50;;;;;;;2.10;1.90;;;;;;;;;;5123341;27;24428;-58
2021/10/07 12:33:15;;;;;;;2.53;1.98;;;;;;;;;;5120801;27;24400;-59
2021/10/07 12:35:53;;;;;;;2.50;1.70;;;;;;;;;;5119427;27;24413;-59
2021/10/07 12:38:18;;;;;;;3.00;2.28;;;;;;;;;;5119885;28;24476;-60
2021/10/07 12:40:49;;;;;;;2.30;2.10;;;;;;;;;;5119574;28;25003;-60
2021/10/07 12:43:14;;;;;;;2.80;2.40;;;;;;;;;;5122884;28;24404;-59
2021/10/07 12:45:58;;;;;;;4.57;2.27;;;;;;;;;;5123464;28;24398;-59
2021/10/07 12:48:23;;;;;;;2.20;2.00;;;;;;;;;;5119732;28;24397;-59
2021/10/07 12:50:49;;;;;;;2.40;2.20;;;;;;;;;;5119432;28;24401;-59
2021/10/07 12:53:14;;;;;;;1.90;1.60;;;;;;;;;;5101438;28;24420;-61
2021/10/07 12:55:39;;;;;;;2.50;2.00;;;;;;;;;;5119004;28;24505;-59
2021/10/07 12:58:04;;;;;;;2.60;1.70;;;;;;;;;;5123083;28;24489;-59
2021/10/07 13:00:37;;;;;;;1.93;1.70;;;;;;;;;;5123724;28;24916;-61
2021/10/07 13:03:03;;;;;;;2.30;1.80;;;;;;;;;;5117544;28;24397;-61
2021/10/07 13:05:29;;;;;;;2.00;1.80;;;;;;;;;;5117270;28;24409;-60
2021/10/07 13:07:55;;;;;;;2.30;1.90;;;;;;;;;;5119512;28;24491;-59
2021/10/07 13:10:20;;;;;;;2.15;1.70;;;;;;;;;;5123187;28;24477;-61
2021/10/07 13:12:46;;;;;;;4.03;2.50;;;;;;;;;;5121693;28;24847;-59
2021/10/07 13:15:11;;;;;;;2.60;2.40;;;;;;;;;;5122226;28;24416;-60
2021/10/07 13:17:36;;;;;;;2.20;2.10;;;;;;;;;;5121184;28;24428;-60
2021/10/07 13:20:01;;;;;;;2.27;1.90;;;;;;;;;;5117272;28;24971;-60
2021/10/07 13:22:26;;;;;;;2.47;2.10;;;;;;;;;;5117287;28;24830;-60
2021/10/07 13:24:52;;;;;;;3.13;2.30;;;;;;;;;;5120990;28;25050;-61
2021/10/07 13:27:22;;;;;;;2.10;2.00;;;;;;;;;;5122659;28;24932;-60
2021/10/07 13:29:47;;;;;;;2.20;2.00;;;;;;;;;;5120156;28;24540;-60
2021/10/07 13:32:14;;;;;;;3.58;2.00;;;;;;;;;;5118794;28;24504;-60
2021/10/07 13:34:39;;;;;;;3.10;2.13;;;;;;;;;;5118982;28;24417;-61
2021/10/07 13:37:04;;;;;;;3.37;2.30;;;;;;;;;;5117231;28;24449;-60
2021/10/07 13:39:29;;;;;;;4.50;2.50;;;;;;;;;;5118756;28;24921;-60
2021/10/07 13:41:54;;;;;;;2.17;1.98;;;;;;;;;;5122542;28;24415;-61
2021/10/07 13:44:20;;;;;;;2.22;2.03;;;;;;;;;;5123171;27;24436;-60
2021/10/07 13:46:45;;;;;;;2.42;2.10;;;;;;;;;;5124638;27;24835;-60
2021/10/07 13:49:10;;;;;;;2.23;1.80;;;;;;;;;;5120716;27;24446;-61
2021/10/07 13:51:35;;;;;;;1.90;1.80;;;;;;;;;;5122460;27;24991;-61
2021/10/07 13:54:01;;;;;;;3.40;2.17;;;;;;;;;;5120391;27;24481;-61
2021/10/07 13:56:26;;;;;;;2.27;2.10;;;;;;;;;;5126643;27;24698;-61
2021/10/07 13:58:51;;;;;;;1.90;1.80;;;;;;;;;;5124557;27;24397;-60
2021/10/07 14:01:17;;;;;;;2.22;2.03;;;;;;;;;;5125915;27;24550;-60
2021/10/07 14:03:42;;;;;;;2.17;1.90;;;;;;;;;;5122407;27;24421;-61
2021/10/07 14:06:07;;;;;;;2.30;2.03;;;;;;;;;;5120152;27;24397;-61
2021/10/07 14:08:32;;;;;;;2.13;1.92;;;;;;;;;;5120625;27;24457;-60
2021/10/07 14:11:04;;;;;;;1.80;1.70;;;;;;;;;;5119689;27;24412;-59
2021/10/07 14:13:30;;;;;;;1.80;1.70;;;;;;;;;;5125682;27;24405;-59
2021/10/07 14:15:55;;;;;;;2.00;1.70;;;;;;;;;;5115505;27;24417;-59
2021/10/07 14:18:21;;;;;;;1.70;1.60;;;;;;;;;;5111585;27;24960;-58
2021/10/07 14:20:46;;;;;;;1.92;1.83;;;;;;;;;;5109925;27;24822;-59
2021/10/07 14:23:11;;;;;;;2.58;1.90;;;;;;;;;;5121308;27;25328;-59
2021/10/07 14:25:36;;;;;;;2.10;1.90;;;;;;;;;;5119968;27;24400;-59
2021/10/07 14:28:04;;;;;;;2.10;1.80;;;;;;;;;;5125050;27;24500;-59
2021/10/07 14:30:29;;;;;;;2.40;2.10;;;;;;;;;;5125418;27;24425;-58
2021/10/07 14:32:54;;;;;;;2.20;2.00;;;;;;;;;;5119088;27;24890;-59
2021/10/07 14:35:19;;;;;;;2.08;1.90;;;;;;;;;;5118865;27;24432;-59
2021/10/07 14:37:45;;;;;;;2.70;2.10;;;;;;;;;;5120340;27;24421;-60
2021/10/07 14:40:10;;;;;;;3.03;1.80;;;;;;;;;;5124586;27;24890;-61